Time,TemperatureF,DewpointF,PressureIn,WindDirection,WindDirectionDegrees,WindSpeedMPH,WindSpeedGustMPH,Humidity,HourlyPrecipIn,Conditions,Clouds,dailyrainin,SolarRadiationWatts/m^2,SoftwareType,DateUTC
2013-07-10 00:16:00,64.2,35.9,30.15,WSW,250,0.0,2.0,35,0.00,CLR,SKC,0.00,0.0,WeatherDisplay:10.37,2013-07-10 06:16:00,
2013-07-10 00:46:00,65.6,33.3,30.15,SE,131,0.0,2.0,30,0.00,CLR,SKC,0.00,0.0,WeatherDisplay:10.37,2013-07-10 06:46:00,
2013-07-10 01:16:00,66.2,32.1,30.15,SE,131,1.0,3.0,28,0.00,CLR,SKC,0.00,0.0,WeatherDisplay:10.37,2013-07-10 07:16:00,
2013-07-10 01:46:00,63.8,34.9,30.16,North,3,0.0,4.0,34,0.00,CLR,SKC,0.00,0.0,WeatherDisplay:10.37,2013-07-10 07:46:00,
2013-07-10 02:16:00,63.5,33.8,30.15,SE,139,0.0,1.0,33,0.00,CLR,SKC,0.00,0.0,WeatherDisplay:10.37,2013-07-10 08:16:00,
2013-07-10 02:46:00,61.3,34.8,30.15,SE,139,0.0,1.0,37,0.00,CLR,SKC,0.00,0.0,WeatherDisplay:10.37,2013-07-10 08:46:00,
2013-07-10 03:16:00,61.3,33.4,30.15,ESE,103,1.0,2.0,35,0.00,CLR,SKC,0.00,0.0,WeatherDisplay:10.37,2013-07-10 09:16:00,
2013-07-10 03:46:00,63.1,31.9,30.15,ESE,117,1.0,3.0,31,0.00,CLR,SKC,0.00,0.0,WeatherDisplay:10.37,2013-07-10 09:46:00,
2013-07-10 04:16:00,62.3,32.0,30.15,ESE,117,0.0,1.0,32,0.00,CLR,SKC,0.00,0.0,WeatherDisplay:10.37,2013-07-10 10:16:00,
2013-07-10 04:46:00,59.8,32.8,30.16,ESE,117,0.0,1.0,36,0.00,CLR,SKC,0.00,0.0,WeatherDisplay:10.37,2013-07-10 10:46:00,
2013-07-10 05:16:00,61.0,32.4,30.17,ESE,117,0.0,2.0,34,0.00,CLR,SKC,0.00,0.0,WeatherDisplay:10.37,2013-07-10 11:16:00,
2013-07-10 05:46:00,59.2,32.9,30.17,ESE,117,0.0,1.0,37,0.00,CLR,SKC,0.00,0.0,WeatherDisplay:10.37,2013-07-10 11:46:00,
2013-07-10 06:16:00,58.3,34.0,30.17,ESE,117,1.0,4.0,40,0.00,CLR,SKC,0.00,7.0,WeatherDisplay:10.37,2013-07-10 12:16:00,
2013-07-10 06:46:00,57.2,34.3,30.18,ESE,117,0.0,1.0,42,0.00,SCT,SKC,0.00,39.0,WeatherDisplay:10.37,2013-07-10 12:46:00,
2013-07-10 07:16:00,60.7,36.9,30.19,ESE,117,0.0,1.0,41,0.00,FEW,SKC,0.00,111.0,WeatherDisplay:10.37,2013-07-10 13:16:00,
2013-07-10 07:46:00,66.7,40.9,30.19,ESE,117,0.0,0.0,39,0.00,CLR,SKC,0.00,211.0,WeatherDisplay:10.37,2013-07-10 13:46:00,
2013-07-10 08:16:00,67.8,33.4,30.18,ESE,117,0.0,1.0,28,0.00,CLR,SKC,0.00,295.0,WeatherDisplay:10.37,2013-07-10 14:16:00,
2013-07-10 08:46:00,70.0,37.1,30.19,NNE,32,0.0,1.0,30,0.00,CLR,SKC,0.00,401.0,WeatherDisplay:10.37,2013-07-10 14:46:00,
2013-07-10 09:16:00,75.3,36.0,30.19,NNE,32,0.0,1.0,24,0.00,CLR,SKC,0.00,496.0,WeatherDisplay:10.37,2013-07-10 15:16:00,
2013-07-10 09:46:00,75.6,41.1,30.19,NNE,31,1.0,3.0,29,0.00,CLR,SKC,0.00,592.0,WeatherDisplay:10.37,2013-07-10 15:46:00,
2013-07-10 10:16:00,77.5,49.2,30.18,WNW,303,1.0,3.0,37,0.00,CLR,SKC,0.00,677.0,WeatherDisplay:10.37,2013-07-10 16:16:00,
2013-07-10 10:46:00,80.4,44.3,30.17,WNW,282,0.0,4.0,28,0.00,CLR,SKC,0.00,758.0,WeatherDisplay:10.37,2013-07-10 16:46:00,
2013-07-10 11:16:00,82.4,44.1,30.15,NW,307,2.0,3.0,26,0.00,CLR,SKC,0.00,831.0,WeatherDisplay:10.37,2013-07-10 17:16:00,
2013-07-10 11:46:00,84.8,35.1,30.14,NNW,338,1.0,4.0,17,0.00,CLR,SKC,0.00,889.0,WeatherDisplay:10.37,2013-07-10 17:46:00,
2013-07-10 13:15:00,91.7,24.8,30.11,SW,231,2.0,6.0,9,0.00,CLR,SKC,0.00,981.0,WeatherDisplay:10.37,2013-07-10 19:15:00,
2013-07-10 13:45:00,91.7,27.4,30.09,SSW,197,5.0,6.0,10,0.00,CLR,SKC,0.00,972.0,WeatherDisplay:10.37,2013-07-10 19:45:00,
2013-07-10 14:15:00,91.8,22.1,30.08,SW,230,5.0,8.0,8,0.00,CLR,SKC,0.00,954.0,WeatherDisplay:10.37,2013-07-10 20:15:00,
2013-07-10 14:45:00,90.8,24.2,30.07,SE,145,8.0,14.0,9,0.00,CLR,SKC,0.00,923.0,WeatherDisplay:10.37,2013-07-10 20:45:00,
2013-07-10 15:15:00,91.3,29.4,30.06,South,190,2.0,7.0,11,0.00,CLR,SKC,0.00,886.0,WeatherDisplay:10.37,2013-07-10 21:15:00,
2013-07-10 15:45:00,93.6,26.3,30.05,WNW,293,2.0,7.0,9,0.00,CLR,SKC,0.00,944.0,WeatherDisplay:10.37,2013-07-10 21:45:00,
2013-07-10 16:15:00,93.2,33.0,30.03,SSW,195,5.0,9.0,12,0.00,CLR,SKC,0.00,772.0,WeatherDisplay:10.37,2013-07-10 22:15:00,
2013-07-10 16:45:00,93.3,33.1,30.01,WSW,241,2.0,7.0,12,0.00,CLR,SKC,0.00,677.0,WeatherDisplay:10.37,2013-07-10 22:45:00,
2013-07-10 17:15:00,92.2,34.3,30.00,SSW,197,6.0,10.0,13,0.00,CLR,SKC,0.00,596.0,WeatherDisplay:10.37,2013-07-10 23:15:00,
2013-07-10 17:45:00,92.8,30.6,29.99,WNW,291,1.0,4.0,11,0.00,CLR,SKC,0.00,497.0,WeatherDisplay:10.37,2013-07-10 23:45:00,
2013-07-10 18:15:00,92.4,32.4,29.98,NNW,337,2.0,4.0,12,0.00,CLR,SKC,0.00,388.0,WeatherDisplay:10.37,2013-07-11 00:15:00,
2013-07-10 18:45:00,91.4,37.2,29.97,West,281,2.0,6.0,15,0.00,CLR,SKC,0.00,295.0,WeatherDisplay:10.37,2013-07-11 00:45:00,
2013-07-10 19:15:00,88.4,36.5,29.96,NW,306,3.0,8.0,16,0.00,CLR,SKC,0.00,195.0,WeatherDisplay:10.37,2013-07-11 01:15:00,
2013-07-10 19:45:00,86.9,36.8,29.96,WNW,293,2.0,4.0,17,0.00,BKN,SKC,0.00,42.0,WeatherDisplay:10.37,2013-07-11 01:45:00,
2013-07-10 20:15:00,85.6,39.9,29.96,WNW,295,0.0,0.0,20,0.00,BKN,SKC,0.00,30.0,WeatherDisplay:10.37,2013-07-11 02:15:00,
2013-07-10 20:45:00,79.9,38.7,29.97,WNW,294,1.0,2.0,23,0.00,CLR,SKC,0.00,7.0,WeatherDisplay:10.37,2013-07-11 02:45:00,
2013-07-10 21:15:00,75.6,37.3,29.98,NW,317,1.0,4.0,25,0.00,CLR,SKC,0.00,0.0,WeatherDisplay:10.37,2013-07-11 03:15:00,
2013-07-10 21:45:00,77.7,32.1,29.99,ESE,123,2.0,7.0,19,0.00,CLR,SKC,0.00,0.0,WeatherDisplay:10.37,2013-07-11 03:45:00,
2013-07-10 22:15:00,77.9,31.0,30.00,SE,126,1.0,5.0,18,0.00,CLR,SKC,0.00,0.0,WeatherDisplay:10.37,2013-07-11 04:15:00,
2013-07-10 22:45:00,77.8,30.9,30.00,SE,126,0.0,5.0,18,0.00,CLR,SKC,0.00,0.0,WeatherDisplay:10.37,2013-07-11 04:45:00,
2013-07-10 23:15:00,72.4,35.5,30.00,WNW,284,0.0,0.0,26,0.00,CLR,SKC,0.00,0.0,WeatherDisplay:10.37,2013-07-11 05:15:00,
2013-07-10 23:45:00,72.3,34.5,30.00,WNW,284,0.0,1.0,25,0.00,CLR,SKC,0.00,0.0,WeatherDisplay:10.37,2013-07-11 05:45:00,